createdAt,value
2022-08-19T00:02:18.154Z,100271.59
2022-08-19T00:04:47.880Z,100275.31
2022-08-19T00:07:15.507Z,100282.03
2022-08-19T00:09:43.025Z,100289.13
2022-08-19T00:12:11.247Z,100278.16
2022-08-19T00:14:40.380Z,100279.38
2022-08-19T00:17:07.996Z,100275.34
2022-08-19T00:19:35.770Z,100283.75
2022-08-19T00:22:03.377Z,100267.78
2022-08-19T00:24:31.221Z,100266.16
2022-08-19T00:27:24.960Z,100264.47
2022-08-19T00:29:52.400Z,100255.78
2022-08-19T00:32:20.712Z,100248.56
2022-08-19T00:34:48.203Z,100253.44
2022-08-19T00:37:15.763Z,100251.72
2022-08-19T00:39:43.277Z,100244.91
2022-08-19T00:42:10.808Z,100247.09
2022-08-19T00:44:38.489Z,100240.84
2022-08-19T00:47:07.522Z,100249.53
2022-08-19T00:49:44.639Z,100244.72
2022-08-19T00:52:16.586Z,100244.41
2022-08-19T00:54:47.769Z,100242.81
2022-08-19T00:57:19.449Z,100240.34
2022-08-19T00:59:59.443Z,100235.72
2022-08-19T01:02:33.358Z,100224.66
2022-08-19T01:05:02.315Z,100229.69
2022-08-19T01:07:37.623Z,100215.63
2022-08-19T01:10:08.209Z,100203.13
2022-08-19T01:12:36.005Z,100205.59
2022-08-19T01:15:04.233Z,100200.44
2022-08-19T01:17:33.299Z,100213.16
2022-08-19T01:20:00.850Z,100222.41
2022-08-19T01:22:33.726Z,100227.25
2022-08-19T01:25:01.843Z,100218.91
2022-08-19T01:27:32.991Z,100221.88
2022-08-19T01:30:12.657Z,100216.72
2022-08-19T01:32:40.141Z,100225.94
2022-08-19T01:35:08.111Z,100211.31
2022-08-19T01:37:49.245Z,100205.59
2022-08-19T01:40:17.729Z,100194.50
2022-08-19T01:42:45.207Z,100208.34
2022-08-19T01:45:12.680Z,100216.19
2022-08-19T01:47:40.166Z,100220.53
2022-08-19T01:50:09.967Z,100223.22
2022-08-19T01:52:37.949Z,100212.69
2022-08-19T01:55:09.609Z,100212.41
2022-08-19T01:57:37.485Z,100218.88
2022-08-19T02:00:07.400Z,100218.06
2022-08-19T02:02:34.950Z,100226.50
2022-08-19T02:05:02.474Z,100232.44
2022-08-19T02:07:30.174Z,100223.19
2022-08-19T02:09:58.343Z,100234.31
2022-08-19T02:12:27.169Z,100228.38
2022-08-19T02:14:54.661Z,100217.28
2022-08-19T02:17:22.248Z,100223.53
2022-08-19T02:19:49.859Z,100228.66
2022-08-19T02:22:17.349Z,100232.50
2022-08-19T02:24:44.851Z,100243.03
2022-08-19T02:27:12.344Z,100245.97
2022-08-19T02:29:41.860Z,100247.00
2022-08-19T02:32:09.462Z,100250.56
2022-08-19T02:34:36.983Z,100244.00
2022-08-19T02:37:04.504Z,100242.34
2022-08-19T02:39:31.372Z,100239.75
2022-08-19T02:42:00.472Z,100235.06
2022-08-19T02:44:31.853Z,100243.78
2022-08-19T02:47:00.973Z,100234.25
2022-08-19T02:49:28.594Z,100239.47
2022-08-19T02:51:56.107Z,100240.28
2022-08-19T02:54:23.615Z,100241.66
2022-08-19T02:56:51.124Z,100234.63
2022-08-19T02:59:18.596Z,100247.88
2022-08-19T03:01:50.346Z,100248.34
2022-08-19T03:04:21.125Z,100242.03
2022-08-19T03:06:48.969Z,100243.41
2022-08-19T03:09:17.370Z,100236.06
2022-08-19T03:11:44.928Z,100243.09
2022-08-19T03:14:13.690Z,100249.00
2022-08-19T03:16:44.444Z,100244.16
2022-08-19T03:19:11.920Z,100242.50
2022-08-19T03:21:40.747Z,100250.31
2022-08-19T03:24:10.089Z,100255.16
2022-08-19T03:26:42.128Z,100253.81
2022-08-19T03:29:11.629Z,100250.28
2022-08-19T03:31:45.408Z,100250.22
2022-08-19T03:34:23.292Z,100258.66
2022-08-19T03:36:52.128Z,100253.34
2022-08-19T03:39:19.995Z,100257.19
2022-08-19T03:41:49.897Z,100262.09
2022-08-19T03:44:38.496Z,100252.75
2022-08-19T03:47:06.931Z,100253.72
2022-08-19T03:49:36.019Z,100258.81
2022-08-19T03:52:08.269Z,100263.34
2022-08-19T03:54:36.473Z,100268.66
2022-08-19T03:57:04.850Z,100268.06
2022-08-19T03:59:34.222Z,100263.50
2022-08-19T04:02:05.314Z,100265.63
2022-08-19T04:04:32.916Z,100262.88
2022-08-19T04:07:00.383Z,100277.41
2022-08-19T04:09:29.237Z,100274.03
2022-08-19T04:11:58.585Z,100273.72
2022-08-19T04:14:29.318Z,100277.78
2022-08-19T04:16:57.416Z,100272.09
2022-08-19T04:19:24.927Z,100283.94
2022-08-19T04:21:54.314Z,100273.63
2022-08-19T04:24:22.544Z,100271.91
2022-08-19T04:26:51.774Z,100265.38
2022-08-19T04:29:22.877Z,100259.16
2022-08-19T04:31:50.814Z,100266.19
2022-08-19T04:34:22.983Z,100262.41
2022-08-19T04:36:51.836Z,100256.69
2022-08-19T04:39:21.325Z,100259.63
2022-08-19T04:42:06.448Z,100270.78
2022-08-19T04:44:36.687Z,100270.13
2022-08-19T04:47:13.442Z,100278.22
2022-08-19T04:49:41.021Z,100275.69
2022-08-19T04:52:09.344Z,100277.69
2022-08-19T04:54:38.891Z,100276.06
2022-08-19T04:57:08.452Z,100285.84
2022-08-19T04:59:37.767Z,100297.94
2022-08-19T05:02:06.379Z,100292.81
2022-08-19T05:04:34.447Z,100288.25
2022-08-19T05:07:02.545Z,100293.66
2022-08-19T05:09:55.324Z,100288.78
2022-08-19T05:12:18.513Z,100287.50
2022-08-19T05:14:48.275Z,100280.88
2022-08-19T05:17:36.288Z,100280.88
2022-08-19T05:20:22.044Z,100285.25
2022-08-19T05:22:49.839Z,100288.63
2022-08-19T05:25:20.964Z,100299.72
2022-08-19T05:27:49.194Z,100294.09
2022-08-19T05:30:20.381Z,100291.78
2022-08-19T05:33:01.281Z,100287.50
2022-08-19T05:35:29.329Z,100297.03
2022-08-19T05:38:02.387Z,100302.44
2022-08-19T05:40:30.034Z,100303.56
2022-08-19T05:42:57.554Z,100309.56
2022-08-19T05:45:26.387Z,100310.75
2022-08-19T05:47:53.857Z,100307.00
2022-08-19T05:50:21.671Z,100306.47
2022-08-19T05:52:50.047Z,100298.38
2022-08-19T05:55:17.768Z,100299.22
2022-08-19T05:57:45.263Z,100302.28
2022-08-19T06:00:14.494Z,100314.22
2022-08-19T06:02:43.393Z,100315.94
2022-08-19T06:05:12.184Z,100319.19
2022-08-19T06:07:41.130Z,100326.53
2022-08-19T06:10:11.592Z,100323.00
2022-08-19T06:12:39.598Z,100323.31
2022-08-19T06:15:09.923Z,100326.84
2022-08-19T06:17:37.656Z,100333.66
2022-08-19T06:20:09.646Z,100333.09
2022-08-19T06:22:39.947Z,100336.31
2022-08-19T06:25:10.036Z,100339.59
2022-08-19T06:27:42.026Z,100349.41
2022-08-19T06:30:13.509Z,100345.38
2022-08-19T06:32:42.870Z,100356.78
2022-08-19T06:35:13.165Z,100351.44
2022-08-19T06:37:43.677Z,100352.28
2022-08-19T06:40:13.452Z,100359.06
2022-08-19T06:42:43.291Z,100358.25
2022-08-19T06:45:24.935Z,100372.09
2022-08-19T06:47:56.678Z,100370.22
2022-08-19T06:50:25.878Z,100362.91
2022-08-19T06:52:53.723Z,100357.72
2022-08-19T06:55:21.498Z,100357.75
2022-08-19T06:57:49.287Z,100367.50
2022-08-19T07:00:17.222Z,100380.03
2022-08-19T07:02:49.684Z,100378.09
2022-08-19T07:05:20.828Z,100376.47
2022-08-19T07:07:49.640Z,100372.13
2022-08-19T07:10:18.568Z,100371.59
2022-08-19T07:12:46.122Z,100373.22
2022-08-19T07:15:14.372Z,100381.09
2022-08-19T07:17:42.235Z,100386.03
2022-08-19T07:20:11.893Z,100387.09
2022-08-19T07:22:40.078Z,100378.38
2022-08-19T07:25:10.316Z,100384.38
2022-08-19T07:27:39.611Z,100386.81
2022-08-19T07:30:23.270Z,100382.41
2022-08-19T07:32:53.911Z,100381.31
2022-08-19T07:35:21.451Z,100376.13
2022-08-19T07:37:49.347Z,100373.13
2022-08-19T07:40:18.250Z,100370.91
2022-08-19T07:42:45.737Z,100368.47
2022-08-19T07:45:13.573Z,100370.38
2022-08-19T07:47:50.190Z,100368.75
2022-08-19T07:50:20.932Z,100375.84
2022-08-19T07:52:50.410Z,100376.34
2022-08-19T07:55:42.584Z,100370.34
2022-08-19T07:58:09.791Z,100377.97
2022-08-19T08:00:37.435Z,100382.00
2022-08-19T08:03:05.201Z,100381.97
2022-08-19T08:05:50.577Z,100386.63
2022-08-19T08:08:35.932Z,100380.06
2022-08-19T08:11:07.584Z,100381.72
2022-08-19T08:13:36.104Z,100392.84
2022-08-19T08:16:04.489Z,100381.66
2022-08-19T08:18:32.159Z,100384.56
2022-08-19T08:21:00.491Z,100377.19
2022-08-19T08:23:28.012Z,100388.31
2022-08-19T08:25:57.878Z,100383.06
2022-08-19T08:28:29.360Z,100395.56
2022-08-19T08:30:58.162Z,100389.03
2022-08-19T08:33:33.036Z,100391.66
2022-08-19T08:36:03.998Z,100392.41
2022-08-19T08:38:38.454Z,100401.41
2022-08-19T08:41:12.056Z,100406.78
2022-08-19T08:43:44.388Z,100399.69
2022-08-19T08:46:16.241Z,100403.63
2022-08-19T08:49:04.600Z,100397.94
2022-08-19T08:51:36.244Z,100393.88
2022-08-19T08:54:07.602Z,100399.78
2022-08-19T08:56:37.381Z,100409.16
2022-08-19T08:59:09.359Z,100405.28
2022-08-19T09:01:40.498Z,100401.16
2022-08-19T09:04:09.256Z,100394.31
2022-08-19T09:06:44.056Z,100401.19
2022-08-19T09:09:16.725Z,100394.03
2022-08-19T09:11:59.329Z,100404.53
2022-08-19T09:14:54.376Z,100397.72
2022-08-19T09:17:31.886Z,100393.81
2022-08-19T09:20:05.665Z,100386.78
2022-08-19T09:22:33.288Z,100382.59
2022-08-19T09:25:00.841Z,100384.97
2022-08-19T09:27:42.569Z,100384.13
2022-08-19T09:30:16.202Z,100372.44
2022-08-19T09:32:44.232Z,100380.31
2022-08-19T09:35:12.155Z,100372.34
2022-08-19T09:37:40.479Z,100372.81
2022-08-19T09:40:09.594Z,100380.25
2022-08-19T09:42:49.721Z,100371.16
2022-08-19T09:45:21.731Z,100378.78
2022-08-19T09:47:49.851Z,100382.94
2022-08-19T09:50:19.023Z,100393.44
2022-08-19T09:52:56.959Z,100389.94
2022-08-19T09:55:31.994Z,100381.94
2022-08-19T09:58:02.085Z,100374.72
2022-08-19T10:00:31.876Z,100371.88
2022-08-19T10:02:59.417Z,100366.31
2022-08-19T10:05:42.430Z,100374.69
2022-08-19T10:08:13.087Z,100369.94
2022-08-19T10:10:46.358Z,100363.81
2022-08-19T10:13:16.323Z,100372.16
2022-08-19T10:15:47.927Z,100371.09
2022-08-19T10:18:16.582Z,100370.25
2022-08-19T10:20:46.329Z,100377.56
2022-08-19T10:23:20.015Z,100375.00
2022-08-19T10:25:48.649Z,100373.63
2022-08-19T10:28:16.189Z,100371.34
2022-08-19T10:30:48.787Z,100368.84
2022-08-19T10:33:38.435Z,100358.25
2022-08-19T10:36:05.978Z,100359.44
2022-08-19T10:38:34.951Z,100364.75
2022-08-19T10:41:09.512Z,100359.44
2022-08-19T10:43:39.048Z,100359.47
2022-08-19T10:46:13.764Z,100358.78
2022-08-19T10:48:45.007Z,100357.47
2022-08-19T10:51:31.169Z,100358.25
2022-08-19T10:53:59.224Z,100359.25
2022-08-19T10:56:44.832Z,100350.34
2022-08-19T10:59:14.565Z,100350.47
2022-08-19T11:01:44.761Z,100340.31
2022-08-19T11:04:14.478Z,100342.91
2022-08-19T11:06:42.516Z,100338.81
2022-08-19T11:09:11.732Z,100333.66
2022-08-19T11:11:41.749Z,100321.31
2022-08-19T11:14:10.379Z,100328.09
2022-08-19T11:16:39.933Z,100327.19
2022-08-19T11:19:10.345Z,100320.50
2022-08-19T11:21:40.053Z,100323.25
2022-08-19T11:24:10.021Z,100320.00
2022-08-19T11:26:38.835Z,100318.16
2022-08-19T11:29:12.159Z,100315.84
2022-08-19T11:31:41.430Z,100301.03
2022-08-19T11:34:12.349Z,100293.03
2022-08-19T11:36:41.504Z,100283.19
2022-08-19T11:39:09.988Z,100290.50
2022-08-19T11:41:37.663Z,100298.28
2022-08-19T11:44:05.650Z,100281.78
2022-08-19T11:46:33.327Z,100268.41
2022-08-19T11:49:02.504Z,100281.81
2022-08-19T11:51:32.049Z,100275.13
2022-08-19T11:54:01.027Z,100275.91
2022-08-19T11:56:29.713Z,100279.16
2022-08-19T11:58:58.103Z,100284.44
2022-08-19T12:01:27.617Z,100287.16
2022-08-19T12:03:57.303Z,100277.16
2022-08-19T12:06:28.242Z,100281.50
2022-08-19T12:08:57.694Z,100289.03
2022-08-19T12:11:25.931Z,100294.63
2022-08-19T12:13:54.473Z,100282.34
2022-08-19T12:16:24.571Z,100283.38
2022-08-19T12:18:52.745Z,100270.81
2022-08-19T12:21:22.876Z,100273.41
2022-08-19T12:23:55.206Z,100270.81
2022-08-19T12:26:25.361Z,100266.56
2022-08-19T12:28:52.930Z,100267.19
2022-08-19T12:31:20.543Z,100266.44
2022-08-19T12:33:49.094Z,100269.81
2022-08-19T12:36:18.512Z,100260.66
2022-08-19T12:38:47.673Z,100268.94
2022-08-19T12:41:18.627Z,100261.19
2022-08-19T12:43:50.049Z,100259.69
2022-08-19T12:46:17.828Z,100250.94
2022-08-19T12:48:45.929Z,100251.47
2022-08-19T12:51:15.736Z,100248.53
2022-08-19T12:53:43.698Z,100244.59
2022-08-19T12:56:12.895Z,100253.47
2022-08-19T12:58:42.608Z,100265.81
2022-08-19T13:01:22.570Z,100249.94
2022-08-19T13:03:52.972Z,100246.84
2022-08-19T13:06:20.494Z,100243.22
2022-08-19T13:08:48.074Z,100250.75
2022-08-19T13:11:18.427Z,100255.84
2022-08-19T13:13:48.285Z,100261.19
2022-08-19T13:16:17.741Z,100265.63
2022-08-19T13:18:48.217Z,100271.31
2022-08-19T13:21:16.038Z,100260.31
2022-08-19T13:23:43.883Z,100264.38
2022-08-19T13:26:12.694Z,100273.09
2022-08-19T13:28:58.609Z,100278.13
2022-08-19T13:31:46.814Z,100272.53
2022-08-19T13:34:15.629Z,100272.63
2022-08-19T13:36:43.475Z,100267.28
2022-08-19T13:39:11.566Z,100268.56
2022-08-19T13:41:39.381Z,100276.03
2022-08-19T13:44:07.920Z,100283.78
2022-08-19T13:46:36.790Z,100280.69
2022-08-19T13:49:05.120Z,100280.25
2022-08-19T13:51:32.626Z,100277.19
2022-08-19T13:54:00.136Z,100267.81
2022-08-19T13:56:27.969Z,100262.19
2022-08-19T13:58:55.608Z,100276.75
2022-08-19T14:01:28.340Z,100281.72
2022-08-19T14:03:57.204Z,100285.22
2022-08-19T14:06:26.240Z,100275.84
2022-08-19T14:08:53.865Z,100279.81
2022-08-19T14:11:23.851Z,100277.38
2022-08-19T14:13:51.442Z,100274.63
2022-08-19T14:16:19.367Z,100289.81
2022-08-19T14:18:47.054Z,100294.19
2022-08-19T14:21:19.026Z,100303.25
2022-08-19T14:23:46.941Z,100306.44
2022-08-19T14:26:16.620Z,100306.03
2022-08-19T14:28:45.299Z,100302.25
2022-08-19T14:31:13.673Z,100299.97
2022-08-19T14:33:41.660Z,100287.72
2022-08-19T14:36:09.396Z,100278.25
2022-08-19T14:38:38.297Z,100279.09
2022-08-19T14:41:11.254Z,100272.75
2022-08-19T14:43:39.219Z,100261.28
2022-08-19T14:46:07.296Z,100256.59
2022-08-19T14:48:34.989Z,100248.44
2022-08-19T14:51:02.994Z,100239.25
2022-08-19T14:53:30.664Z,100229.50
2022-08-19T14:55:59.552Z,100215.91
2022-08-19T14:58:29.419Z,100214.69
2022-08-19T15:00:58.558Z,100220.81
2022-08-19T15:03:26.871Z,100225.09
2022-08-19T15:05:54.477Z,100223.38
2022-08-19T15:08:25.647Z,100226.59
2022-08-19T15:10:53.775Z,100217.50
2022-08-19T15:13:22.825Z,100213.47
2022-08-19T15:15:50.417Z,100224.88
2022-08-19T15:18:18.051Z,100218.66
2022-08-19T15:20:46.599Z,100222.53
2022-08-19T15:23:15.195Z,100228.66
2022-08-19T15:25:43.184Z,100236.81
2022-08-19T15:28:12.004Z,100233.69
2022-08-19T15:30:41.960Z,100225.97
2022-08-19T15:33:09.479Z,100234.88
2022-08-19T15:35:37.040Z,100232.97
2022-08-19T15:38:06.427Z,100235.72
2022-08-19T15:40:33.910Z,100240.06
2022-08-19T15:43:01.682Z,100230.28
2022-08-19T15:45:32.736Z,100238.63
2022-08-19T15:48:02.482Z,100241.13
2022-08-19T15:50:31.888Z,100230.28
2022-08-19T15:53:03.496Z,100241.97
2022-08-19T15:55:34.695Z,100237.50
2022-08-19T15:58:28.523Z,100236.22
2022-08-19T16:01:15.587Z,100243.69
2022-08-19T16:04:02.552Z,100247.28
2022-08-19T16:06:32.877Z,100229.22
2022-08-19T16:09:02.802Z,100241.84
2022-08-19T16:11:32.494Z,100236.28
2022-08-19T16:14:01.109Z,100234.69
2022-08-19T16:16:35.267Z,100242.44
2022-08-19T16:19:10.314Z,100237.91
2022-08-19T16:21:41.496Z,100227.09
2022-08-19T16:24:11.928Z,100229.66
2022-08-19T16:26:40.155Z,100237.00
2022-08-19T16:29:08.966Z,100238.06
2022-08-19T16:31:40.398Z,100235.28
2022-08-19T16:34:09.293Z,100234.97
2022-08-19T16:36:41.613Z,100252.06
2022-08-19T16:39:09.918Z,100247.97
2022-08-19T16:41:37.450Z,100241.25
2022-08-19T16:44:05.272Z,100245.53
2022-08-19T16:46:32.963Z,100249.09
2022-08-19T16:49:00.606Z,100259.84
2022-08-19T16:51:29.908Z,100255.22
2022-08-19T16:53:57.416Z,100261.59
2022-08-19T16:56:25.511Z,100260.75
2022-08-19T16:58:53.795Z,100263.44
2022-08-19T17:01:21.533Z,100268.31
2022-08-19T17:03:50.476Z,100273.00
2022-08-19T17:06:21.168Z,100278.75
2022-08-19T17:08:51.552Z,100269.53
2022-08-19T17:11:21.052Z,100270.22
2022-08-19T17:13:50.669Z,100268.06
2022-08-19T17:16:19.747Z,100270.59
2022-08-19T17:18:47.340Z,100273.94
2022-08-19T17:21:14.839Z,100276.03
2022-08-19T17:23:48.827Z,100267.38
2022-08-19T17:26:18.913Z,100272.56
2022-08-19T17:28:47.937Z,100275.16
2022-08-19T17:31:15.477Z,100271.28
2022-08-19T17:33:43.072Z,100270.44
2022-08-19T17:36:16.666Z,100271.78
2022-08-19T17:38:44.411Z,100276.97
2022-08-19T17:41:11.950Z,100266.38
2022-08-19T17:43:43.846Z,100272.41
2022-08-19T17:46:17.708Z,100279.53
2022-08-19T17:48:51.453Z,100278.81
2022-08-19T17:51:22.291Z,100292.94
2022-08-19T17:53:51.551Z,100276.72
2022-08-19T17:56:19.535Z,100286.47
2022-08-19T17:58:59.552Z,100288.28
2022-08-19T18:01:28.800Z,100295.59
2022-08-19T18:04:16.016Z,100292.84
2022-08-19T18:06:46.613Z,100293.94
2022-08-19T18:09:23.890Z,100302.91
2022-08-19T18:11:52.650Z,100302.97
2022-08-19T18:14:33.262Z,100297.28
2022-08-19T18:17:05.382Z,100309.06
2022-08-19T18:19:40.762Z,100308.34
2022-08-19T18:22:08.500Z,100310.47
2022-08-19T18:24:38.596Z,100304.16
2022-08-19T18:27:06.797Z,100316.25
2022-08-19T18:29:36.959Z,100319.06
2022-08-19T18:32:05.221Z,100318.16
2022-08-19T18:34:33.194Z,100315.91
2022-08-19T18:37:00.660Z,100329.34
2022-08-19T18:39:45.852Z,100328.06
2022-08-19T18:42:32.629Z,100327.06
2022-08-19T18:45:19.335Z,100335.75
2022-08-19T18:48:04.627Z,100328.97
2022-08-19T18:50:32.816Z,100330.09
2022-08-19T18:53:01.387Z,100340.00
2022-08-19T18:55:29.294Z,100338.41
2022-08-19T18:57:56.925Z,100348.50
2022-08-19T19:00:25.887Z,100343.81
2022-08-19T19:02:54.517Z,100354.91
2022-08-19T19:05:22.662Z,100356.16
2022-08-19T19:07:50.508Z,100365.16
2022-08-19T19:10:18.118Z,100361.38
2022-08-19T19:12:45.824Z,100363.22
2022-08-19T19:15:13.960Z,100364.25
2022-08-19T19:17:42.791Z,100374.59
2022-08-19T19:20:10.424Z,100378.09
2022-08-19T19:22:38.023Z,100382.63
2022-08-19T19:25:06.640Z,100388.69
2022-08-19T19:27:34.187Z,100390.84
2022-08-19T19:30:01.833Z,100387.88
2022-08-19T19:32:38.769Z,100397.47
2022-08-19T19:35:09.767Z,100401.72
2022-08-19T19:37:37.580Z,100405.03
2022-08-19T19:40:05.809Z,100406.53
2022-08-19T19:42:33.317Z,100403.16
2022-08-19T19:45:02.006Z,100409.06
2022-08-19T19:47:30.296Z,100411.34
2022-08-19T19:50:15.189Z,100410.00
2022-08-19T19:52:46.566Z,100412.13
2022-08-19T19:55:18.337Z,100418.53
2022-08-19T19:57:46.286Z,100419.34
2022-08-19T20:00:16.519Z,100421.63
2022-08-19T20:02:47.884Z,100429.34
2022-08-19T20:05:19.207Z,100422.19
2022-08-19T20:08:05.587Z,100433.25
2022-08-19T20:10:33.421Z,100432.16
2022-08-19T20:13:03.280Z,100442.59
2022-08-19T20:15:31.268Z,100448.13
2022-08-19T20:17:59.354Z,100453.56
2022-08-19T20:20:27.167Z,100454.47
2022-08-19T20:22:56.041Z,100460.16
2022-08-19T20:25:23.804Z,100462.09
2022-08-19T20:27:51.761Z,100455.34
2022-08-19T20:30:23.153Z,100459.72
2022-08-19T20:32:51.059Z,100459.78
2022-08-19T20:35:21.207Z,100466.06
2022-08-19T20:37:48.988Z,100458.41
2022-08-19T20:40:21.639Z,100466.84
2022-08-19T20:42:50.490Z,100462.78
2022-08-19T20:45:32.993Z,100467.44
2022-08-19T20:48:02.847Z,100469.06
2022-08-19T20:50:31.314Z,100470.72
2022-08-19T20:52:58.867Z,100453.09
2022-08-19T20:55:28.823Z,100459.59
2022-08-19T20:57:56.507Z,100466.16
2022-08-19T21:00:24.241Z,100465.31
2022-08-19T21:02:51.793Z,100458.78
2022-08-19T21:05:19.488Z,100461.50
2022-08-19T21:07:47.045Z,100467.28
2022-08-19T21:10:15.331Z,100465.91
2022-08-19T21:12:44.474Z,100468.34
2022-08-19T21:15:12.477Z,100472.72
2022-08-19T21:17:40.189Z,100472.69
2022-08-19T21:20:09.028Z,100473.78
2022-08-19T21:22:36.661Z,100474.31
2022-08-19T21:25:04.981Z,100480.88
2022-08-19T21:27:32.483Z,100481.66
2022-08-19T21:30:01.325Z,100477.59
2022-08-19T21:32:28.819Z,100481.69
2022-08-19T21:34:56.505Z,100483.06
2022-08-19T21:37:25.597Z,100472.47
2022-08-19T21:39:53.895Z,100467.25
2022-08-19T21:42:22.346Z,100464.25
2022-08-19T21:44:50.156Z,100467.22
2022-08-19T21:47:19.261Z,100466.38
2022-08-19T21:49:47.024Z,100476.41
2022-08-19T21:52:14.616Z,100480.22
2022-08-19T21:54:42.176Z,100469.03
2022-08-19T21:57:10.484Z,100472.78
2022-08-19T21:59:39.719Z,100477.88
2022-08-19T22:02:20.034Z,100480.31
2022-08-19T22:04:50.827Z,100484.63
2022-08-19T22:07:20.050Z,100483.28
2022-08-19T22:09:48.938Z,100480.84
2022-08-19T22:12:23.273Z,100485.75
2022-08-19T22:14:51.655Z,100481.91
2022-08-19T22:17:19.826Z,100481.31
2022-08-19T22:19:47.383Z,100482.63
2022-08-19T22:22:20.855Z,100486.94
2022-08-19T22:24:49.066Z,100483.53
2022-08-19T22:27:16.604Z,100484.16
2022-08-19T22:29:44.132Z,100483.13
2022-08-19T22:32:26.201Z,100488.84
2022-08-19T22:34:56.614Z,100491.34
2022-08-19T22:37:26.214Z,100477.78
2022-08-19T22:39:53.928Z,100487.28
2022-08-19T22:42:22.254Z,100476.72
2022-08-19T22:44:50.025Z,100482.47
2022-08-19T22:47:17.535Z,100484.38
2022-08-19T22:49:45.528Z,100483.59
2022-08-19T22:52:17.220Z,100483.91
2022-08-19T22:54:48.037Z,100480.94
2022-08-19T22:57:15.996Z,100484.75
2022-08-19T22:59:43.518Z,100479.06
2022-08-19T23:02:11.825Z,100483.41
2022-08-19T23:04:39.290Z,100483.69
2022-08-19T23:07:07.542Z,100485.88
2022-08-19T23:09:36.098Z,100476.91
2022-08-19T23:12:05.970Z,100482.91
2022-08-19T23:14:34.277Z,100476.41
2022-08-19T23:17:02.324Z,100482.34
2022-08-19T23:19:29.800Z,100481.78
2022-08-19T23:21:57.618Z,100479.66
2022-08-19T23:24:25.118Z,100473.34
2022-08-19T23:27:09.991Z,100469.81
2022-08-19T23:29:56.641Z,100471.97
2022-08-19T23:32:25.390Z,100469.28
2022-08-19T23:34:52.944Z,100472.78
2022-08-19T23:37:20.434Z,100475.19
2022-08-19T23:39:49.255Z,100471.47
2022-08-19T23:42:16.890Z,100476.88
2022-08-19T23:44:51.960Z,100476.91
2022-08-19T23:47:20.555Z,100481.50
2022-08-19T23:49:48.529Z,100478.50
2022-08-19T23:52:16.033Z,100488.56
2022-08-19T23:54:44.133Z,100483.31
2022-08-19T23:57:14.139Z,100480.56
2022-08-19T23:59:42.591Z,100477.34
